Time;durP1;ratioP1;P1;durP2;ratioP2;P2;SDS_P1;SDS_P2;PMS_P1;PMS_P2;Temp;Humidity;BMP_temperature;BMP_pressure;BME280_temperature;BME280_humidity;BME280_pressure;Samples;Min_cycle;Max_cycle;Signal;HPM_P1;HPM_P2
2022/01/02 00:00:40;;;;;;;8.55;4.50;;;;;;;10.95;83.45;101718.28;5088576;28;20035;-83
2022/01/02 00:03:08;;;;;;;6.78;4.55;;;;;;;10.94;83.25;101721.00;5090603;28;20070;-84
2022/01/02 00:05:38;;;;;;;8.07;4.43;;;;;;;10.95;83.57;101722.72;5097145;28;20069;-83
2022/01/02 00:08:10;;;;;;;7.95;4.40;;;;;;;10.97;83.51;101734.00;5097191;28;20020;-84
2022/01/02 00:10:37;;;;;;;8.10;4.45;;;;;;;10.97;83.93;101742.75;5090272;28;20032;-83
2022/01/02 00:13:05;;;;;;;8.13;4.45;;;;;;;10.95;83.36;101738.50;5099367;28;20027;-83
2022/01/02 00:15:32;;;;;;;7.03;4.20;;;;;;;10.98;83.09;101748.84;5106318;28;20370;-84
2022/01/02 00:18:10;;;;;;;9.00;4.70;;;;;;;10.98;83.36;101743.59;5108241;28;20019;-83
2022/01/02 00:20:45;;;;;;;7.25;4.70;;;;;;;10.99;83.24;101746.13;5106698;28;20055;-83
2022/01/02 00:23:20;;;;;;;8.35;4.43;;;;;;;11.00;82.93;101733.81;5109245;28;20015;-83
2022/01/02 00:25:52;;;;;;;8.30;4.40;;;;;;;10.99;83.14;101729.47;5109422;28;20023;-83
2022/01/02 00:28:18;;;;;;;9.00;3.95;;;;;;;11.03;82.71;101730.97;5094607;28;20451;-83
2022/01/02 00:30:45;;;;;;;5.82;4.18;;;;;;;11.04;82.94;101727.41;5101251;28;20373;-83
2022/01/02 00:33:15;;;;;;;6.60;4.00;;;;;;;11.06;83.50;101719.41;5103555;28;20028;-83
2022/01/02 00:35:41;;;;;;;8.20;4.07;;;;;;;11.06;84.23;101720.25;5090286;28;20034;-84
2022/01/02 00:38:13;;;;;;;8.40;4.22;;;;;;;11.07;83.64;101726.38;5095909;28;20020;-84
2022/01/02 00:40:42;;;;;;;8.48;4.07;;;;;;;11.08;84.46;101723.63;5097965;28;20448;-81
2022/01/02 00:43:18;;;;;;;9.38;3.92;;;;;;;11.06;85.41;101724.66;5096536;28;20061;-81
2022/01/02 00:45:47;;;;;;;10.10;4.72;;;;;;;11.05;85.88;101723.81;5095621;28;20024;-82
2022/01/02 00:48:28;;;;;;;8.40;4.30;;;;;;;11.06;86.42;101727.31;5096045;28;20027;-81
2022/01/02 00:51:09;;;;;;;8.40;4.17;;;;;;;11.03;87.19;101736.25;5098303;28;20157;-81
2022/01/02 00:53:36;;;;;;;8.13;4.50;;;;;;;10.99;87.89;101721.56;5103072;28;20300;-81
2022/01/02 00:56:03;;;;;;;9.30;4.30;;;;;;;10.97;88.56;101731.34;5104971;28;20364;-81
2022/01/02 00:58:39;;;;;;;10.10;4.30;;;;;;;10.93;89.29;101714.91;5100791;28;20016;-81
2022/01/02 01:01:06;;;;;;;9.95;4.63;;;;;;;10.92;88.72;101712.38;5099997;28;20020;-81
2022/01/02 01:03:33;;;;;;;8.65;4.53;;;;;;;10.88;89.97;101710.88;5094723;28;20084;-81
2022/01/02 01:06:03;;;;;;;10.70;5.10;;;;;;;10.84;89.82;101704.94;5088726;28;20016;-81
2022/01/02 01:08:31;;;;;;;8.02;4.75;;;;;;;10.83;90.42;101707.66;5105977;28;20391;-81
2022/01/02 01:10:58;;;;;;;10.02;4.90;;;;;;;10.78;90.50;101704.44;5106833;28;20483;-81
2022/01/02 01:13:24;;;;;;;8.32;4.70;;;;;;;10.74;91.08;101690.63;5107599;28;20036;-81
2022/01/02 01:15:50;;;;;;;7.32;4.65;;;;;;;10.72;90.94;101694.28;5108868;28;20051;-82
2022/01/02 01:18:16;;;;;;;10.43;4.78;;;;;;;10.68;91.27;101697.13;5090552;28;20035;-82
2022/01/02 01:20:45;;;;;;;10.57;4.63;;;;;;;10.60;92.07;101680.09;5091798;28;20403;-81
2022/01/02 01:23:17;;;;;;;11.32;5.10;;;;;;;10.62;92.07;101694.84;5096191;28;20035;-82
2022/01/02 01:25:46;;;;;;;10.77;4.93;;;;;;;10.60;91.98;101677.47;5100027;28;20558;-82
2022/01/02 01:28:15;;;;;;;9.90;4.47;;;;;;;10.60;92.52;101680.09;5109077;28;20020;-82
2022/01/02 01:30:41;;;;;;;7.22;4.40;;;;;;;10.55;92.68;101675.13;5097875;28;20048;-82
2022/01/02 01:33:07;;;;;;;8.88;4.88;;;;;;;10.55;92.91;101661.97;5084049;28;20039;-81
2022/01/02 01:35:32;;;;;;;9.63;4.82;;;;;;;10.55;92.77;101664.59;5107339;28;20015;-81
2022/01/02 01:37:58;;;;;;;9.70;5.28;;;;;;;10.54;93.13;101665.53;5106026;28;20019;-82
2022/01/02 01:40:24;;;;;;;10.10;4.80;;;;;;;10.53;93.08;101658.59;5095971;28;20031;-82
2022/01/02 01:42:59;;;;;;;8.93;4.70;;;;;;;10.54;93.18;101662.91;5110824;28;20073;-82
2022/01/02 01:45:28;;;;;;;9.10;4.63;;;;;;;10.53;93.19;101658.59;5095911;28;20040;-82
2022/01/02 01:47:57;;;;;;;11.15;5.07;;;;;;;10.51;92.80;101655.19;5108010;28;20030;-82
2022/01/02 01:50:28;;;;;;;13.90;4.75;;;;;;;10.50;93.38;101661.41;5101142;28;20024;-82
2022/01/02 01:52:53;;;;;;;8.85;5.15;;;;;;;10.47;93.13;101648.44;5092547;28;20031;-82
2022/01/02 01:55:21;;;;;;;10.75;5.03;;;;;;;10.45;93.44;101639.78;5095940;28;20364;-82
2022/01/02 01:57:48;;;;;;;11.57;5.00;;;;;;;10.45;93.25;101639.78;5104645;28;20058;-82
2022/01/02 02:00:16;;;;;;;10.82;5.07;;;;;;;10.46;93.79;101624.84;5099394;28;20038;-82
2022/01/02 02:02:43;;;;;;;11.15;4.70;;;;;;;10.45;93.53;101634.53;5106361;28;20050;-82
2022/01/02 02:05:10;;;;;;;10.63;4.95;;;;;;;10.44;93.49;101629.38;5111555;28;20019;-82
2022/01/02 02:07:41;;;;;;;9.75;5.25;;;;;;;10.46;93.50;101620.44;5110353;28;20027;-82
2022/01/02 02:10:22;;;;;;;12.93;5.03;;;;;;;10.43;93.28;101610.09;5109477;28;20114;-82
2022/01/02 02:12:50;;;;;;;10.43;4.95;;;;;;;10.45;93.25;101608.22;5096686;28;20089;-83
2022/01/02 02:15:16;;;;;;;9.88;4.85;;;;;;;10.44;93.71;101600.41;5105889;28;20055;-82
2022/01/02 02:17:44;;;;;;;10.77;4.85;;;;;;;10.44;93.50;101596.00;5111791;28;20114;-82
2022/01/02 02:20:23;;;;;;;11.60;4.72;;;;;;;10.48;93.22;101601.94;5112018;28;20068;-82
2022/01/02 02:22:52;;;;;;;11.40;4.97;;;;;;;10.45;93.75;101599.47;5103993;28;20112;-81
2022/01/02 02:25:22;;;;;;;11.27;4.97;;;;;;;10.47;93.94;101594.97;5111363;28;20023;-82
2022/01/02 02:27:53;;;;;;;9.45;4.43;;;;;;;10.48;93.51;101596.66;5098190;28;20055;-82
2022/01/02 02:30:23;;;;;;;13.82;4.80;;;;;;;10.45;93.54;101587.19;5095903;28;20079;-82
2022/01/02 02:32:50;;;;;;;12.18;4.53;;;;;;;10.45;93.68;101584.53;5111437;28;20123;-82
2022/01/02 02:35:17;;;;;;;11.60;4.93;;;;;;;10.47;94.03;101587.06;5110883;28;20028;-82
2022/01/02 02:37:45;;;;;;;11.88;5.00;;;;;;;10.48;93.85;101592.25;5110634;28;20030;-81
2022/01/02 02:40:14;;;;;;;8.65;4.45;;;;;;;10.47;93.88;101590.56;5097465;28;20047;-81
2022/01/02 02:42:58;;;;;;;9.88;4.88;;;;;;;10.47;94.00;101584.44;5099601;28;20973;-82
2022/01/02 02:51:03;;;;;;;12.80;5.05;;;;;;;10.48;93.79;101560.66;5090899;28;20046;-82
2022/01/02 02:53:29;;;;;;;8.98;4.72;;;;;;;10.48;94.29;101558.03;5105542;28;20040;-82
2022/01/02 02:55:58;;;;;;;12.77;4.93;;;;;;;10.49;94.36;101557.09;5099828;28;20045;-81
2022/01/02 03:01:00;;;;;;;13.02;5.15;;;;;;;10.48;94.53;101555.41;5098116;28;20034;-81
2022/01/02 03:03:26;;;;;;;13.23;5.25;;;;;;;10.47;94.61;101548.47;5093197;28;20024;-81
2022/01/02 03:05:52;;;;;;;12.43;5.72;;;;;;;10.47;94.23;101558.97;5090657;28;20085;-81
2022/01/02 03:08:18;;;;;;;10.15;5.03;;;;;;;10.49;94.47;101559.72;5108051;28;20096;-82
2022/01/02 03:10:44;;;;;;;11.65;5.40;;;;;;;10.50;94.46;101561.41;5108604;28;20054;-81
2022/01/02 03:13:10;;;;;;;14.43;5.50;;;;;;;10.51;94.73;101552.59;5107871;28;20082;-82
2022/01/02 03:15:36;;;;;;;13.02;5.57;;;;;;;10.49;94.78;101543.09;5100939;28;20468;-82
2022/01/02 03:18:02;;;;;;;12.15;5.03;;;;;;;10.51;95.17;101557.84;5089382;28;20989;-82
2022/01/02 03:20:28;;;;;;;14.07;5.13;;;;;;;10.50;94.95;101548.28;5090200;28;20503;-81
2022/01/02 03:22:53;;;;;;;12.20;5.50;;;;;;;10.52;95.04;101551.66;5106819;28;20027;-81
2022/01/02 03:25:22;;;;;;;9.40;5.00;;;;;;;10.50;95.07;101540.38;5103585;27;20032;-81
2022/01/02 03:27:47;;;;;;;11.73;5.45;;;;;;;10.51;95.67;101547.31;5107801;28;20096;-81
2022/01/02 03:30:14;;;;;;;19.65;5.50;;;;;;;10.51;95.40;101539.44;5109258;28;20044;-82
2022/01/02 03:32:40;;;;;;;16.08;5.35;;;;;;;10.52;95.48;101551.66;5108901;28;20384;-81
2022/01/02 03:35:07;;;;;;;15.13;5.78;;;;;;;10.50;95.41;101548.28;5097838;27;20435;-81
2022/01/02 03:37:34;;;;;;;12.55;5.45;;;;;;;10.51;96.01;101557.84;5110034;27;20019;-82
2022/01/02 03:40:05;;;;;;;16.30;6.20;;;;;;;10.53;95.74;101555.97;5109310;28;20036;-82
2022/01/02 03:42:31;;;;;;;16.00;5.40;;;;;;;10.51;95.84;101549.97;5102895;28;20034;-81
2022/01/02 03:44:59;;;;;;;16.60;6.32;;;;;;;10.52;96.06;101543.75;5110188;28;20103;-82
2022/01/02 03:47:25;;;;;;;20.30;6.05;;;;;;;10.51;96.25;101541.22;5101562;28;20031;-82
2022/01/02 03:49:51;;;;;;;16.35;5.50;;;;;;;10.51;95.88;101533.31;5093683;28;20024;-82
2022/01/02 03:52:18;;;;;;;14.40;5.43;;;;;;;10.53;96.31;101537.53;5089767;28;20038;-82
2022/01/02 03:54:44;;;;;;;16.08;5.32;;;;;;;10.48;95.85;101517.72;5097888;28;20016;-82
2022/01/02 03:57:10;;;;;;;15.00;5.38;;;;;;;10.51;95.87;101523.66;5091275;28;20116;-81
2022/01/02 03:59:35;;;;;;;17.27;5.25;;;;;;;10.53;96.06;101521.75;5100711;28;20068;-82
2022/01/02 04:02:00;;;;;;;14.07;5.32;;;;;;;10.52;95.81;101517.44;5108927;28;20028;-81
2022/01/02 04:04:28;;;;;;;12.32;4.93;;;;;;;10.54;95.75;101498.94;5088964;28;20523;-82
2022/01/02 04:06:54;;;;;;;14.45;4.82;;;;;;;10.53;95.78;101499.88;5102444;28;20027;-82
2022/01/02 04:09:22;;;;;;;17.33;5.13;;;;;;;10.55;95.33;101488.31;5108023;28;20495;-82
2022/01/02 04:11:48;;;;;;;12.00;5.00;;;;;;;10.57;95.46;101490.84;5108914;28;20467;-82
2022/01/02 04:14:14;;;;;;;17.30;4.95;;;;;;;10.58;94.66;101493.38;5098304;28;20089;-81
2022/01/02 04:16:40;;;;;;;14.05;4.95;;;;;;;10.59;95.13;101489.78;5096591;28;20032;-82
2022/01/02 04:19:05;;;;;;;12.38;4.95;;;;;;;10.59;95.12;101492.41;5105281;28;20166;-81
2022/01/02 04:21:30;;;;;;;11.15;4.60;;;;;;;10.60;94.96;101498.53;5106198;28;20580;-82
2022/01/02 04:23:57;;;;;;;14.60;5.07;;;;;;;10.59;95.56;101495.06;5107677;28;20367;-82
2022/01/02 04:26:23;;;;;;;11.02;4.80;;;;;;;10.57;95.19;101486.41;5107817;28;20466;-81
2022/01/02 04:28:49;;;;;;;12.13;4.82;;;;;;;10.57;95.34;101494.31;5101018;28;20020;-82
2022/01/02 04:31:16;;;;;;;10.82;4.60;;;;;;;10.56;95.71;101495.25;5106563;28;20479;-81
2022/01/02 04:33:45;;;;;;;11.75;4.90;;;;;;;10.56;95.56;101483.88;5108691;28;20175;-81
2022/01/02 04:36:14;;;;;;;10.57;5.18;;;;;;;10.56;95.33;101479.47;5105310;28;20400;-81
2022/01/02 04:38:42;;;;;;;11.98;4.82;;;;;;;10.52;95.83;101477.13;5095934;28;20020;-81
2022/01/02 04:41:07;;;;;;;11.55;5.10;;;;;;;10.52;95.79;101472.72;5103275;28;20114;-82
2022/01/02 04:43:33;;;;;;;11.32;5.35;;;;;;;10.54;96.07;101468.19;5099817;28;20107;-81
2022/01/02 04:45:58;;;;;;;13.82;5.20;;;;;;;10.52;96.01;101456.94;5107365;28;20024;-82
2022/01/02 04:48:24;;;;;;;12.10;5.22;;;;;;;10.52;95.80;101454.28;5106191;28;20111;-82
2022/01/02 04:50:49;;;;;;;11.05;5.05;;;;;;;10.51;96.27;101446.50;5100187;28;20103;-82
2022/01/02 04:53:15;;;;;;;12.95;4.97;;;;;;;10.50;96.12;101437.75;5091033;28;20028;-82
2022/01/02 04:55:40;;;;;;;16.20;5.10;;;;;;;10.50;96.13;101429.88;5093046;28;20169;-82
2022/01/02 04:58:07;;;;;;;10.18;5.15;;;;;;;10.45;96.09;101421.44;5108449;28;20024;-82
2022/01/02 05:00:32;;;;;;;11.00;5.10;;;;;;;10.49;96.26;101411.56;5107427;28;20038;-81
2022/01/02 05:02:58;;;;;;;14.63;5.20;;;;;;;10.47;96.12;101385.34;5106491;28;20103;-82
2022/01/02 05:05:23;;;;;;;12.15;5.00;;;;;;;10.49;95.85;101395.78;5091044;28;20078;-82
2022/01/02 05:07:49;;;;;;;13.00;4.65;;;;;;;10.42;95.75;101379.53;5098265;28;20034;-82
2022/01/02 05:10:14;;;;;;;14.18;4.70;;;;;;;10.48;96.01;101392.28;5105293;28;20034;-82
2022/01/02 05:12:40;;;;;;;13.18;4.47;;;;;;;10.44;95.70;101382.91;5107443;28;20467;-81
2022/01/02 05:15:06;;;;;;;11.52;4.78;;;;;;;10.42;96.37;101369.03;5107617;28;20123;-82
2022/01/02 05:17:31;;;;;;;11.45;4.90;;;;;;;10.40;96.43;101370.88;5110599;28;20055;-82
2022/01/02 05:19:57;;;;;;;10.73;4.60;;;;;;;10.41;96.43;101364.69;5111967;28;20024;-81
2022/01/02 05:22:23;;;;;;;11.65;5.10;;;;;;;10.40;96.11;101368.25;5111557;28;20416;-82
2022/01/02 05:24:48;;;;;;;10.07;4.45;;;;;;;10.39;96.33;101366.56;5092821;28;20024;-82
2022/01/02 05:27:14;;;;;;;11.55;4.78;;;;;;;10.40;96.49;101362.97;5093413;28;20034;-82
2022/01/02 05:29:39;;;;;;;15.70;4.85;;;;;;;10.41;96.52;101364.69;5109837;28;20407;-82
2022/01/02 05:32:05;;;;;;;13.00;4.90;;;;;;;10.38;96.15;101354.34;5110856;28;20093;-82
2022/01/02 05:34:31;;;;;;;9.52;4.40;;;;;;;10.38;96.47;101349.09;5111413;28;20115;-82
2022/01/02 05:36:57;;;;;;;8.77;4.88;;;;;;;10.35;96.08;101347.50;5109521;28;20331;-82
2022/01/02 05:39:24;;;;;;;12.50;4.65;;;;;;;10.36;96.33;101349.19;5110701;28;20031;-82
2022/01/02 05:41:51;;;;;;;11.15;4.90;;;;;;;10.37;96.59;101350.03;5111709;27;20020;-81
2022/01/02 05:44:17;;;;;;;12.27;4.88;;;;;;;10.31;96.43;101332.88;5108623;28;20027;-82
2022/01/02 05:46:44;;;;;;;10.52;4.50;;;;;;;10.30;96.65;101325.06;5107556;28;20066;-82
2022/01/02 05:49:10;;;;;;;8.38;4.78;;;;;;;10.33;96.58;101336.25;5108126;28;20039;-82
2022/01/02 05:51:36;;;;;;;13.23;5.00;;;;;;;10.31;96.58;101321.50;5094834;28;20108;-82
2022/01/02 05:54:02;;;;;;;11.57;5.20;;;;;;;10.30;96.60;101309.28;5090732;28;20032;-82
2022/01/02 05:56:28;;;;;;;13.65;5.05;;;;;;;10.29;96.45;101302.34;5092406;28;20032;-83
2022/01/02 05:58:54;;;;;;;13.90;5.10;;;;;;;10.29;96.57;101297.09;5092199;28;20037;-82
2022/01/02 06:01:23;;;;;;;15.48;5.47;;;;;;;10.24;96.63;101283.41;5092291;28;20056;-82
2022/01/02 06:03:48;;;;;;;9.18;5.18;;;;;;;10.29;96.60;101276.03;5106643;28;20016;-82
2022/01/02 06:06:14;;;;;;;12.82;4.90;;;;;;;10.29;96.17;101270.78;5092807;28;20035;-82
2022/01/02 06:08:39;;;;;;;10.68;4.82;;;;;;;10.27;96.17;101262.16;5108590;28;20152;-82
2022/01/02 06:11:05;;;;;;;12.00;4.55;;;;;;;10.28;96.09;101263.84;5110228;28;20023;-82
2022/01/02 06:13:31;;;;;;;10.30;4.75;;;;;;;10.25;96.25;101248.28;5110504;28;20482;-82
2022/01/02 06:15:56;;;;;;;9.23;4.30;;;;;;;10.26;95.95;101255.22;5112014;28;20043;-82
2022/01/02 06:18:22;;;;;;;11.60;4.68;;;;;;;10.25;95.88;101248.28;5106807;28;20020;-82
2022/01/02 06:20:48;;;;;;;13.15;4.40;;;;;;;10.25;95.64;101235.13;5103455;28;20031;-82
2022/01/02 06:23:16;;;;;;;9.48;4.07;;;;;;;10.26;95.73;101221.03;5111698;28;20080;-82
2022/01/02 06:25:46;;;;;;;8.95;3.95;;;;;;;10.27;95.67;101214.81;5109692;28;20031;-82
2022/01/02 06:28:15;;;;;;;10.48;4.05;;;;;;;10.24;95.56;101194.84;5089071;28;20123;-82
2022/01/02 06:30:45;;;;;;;11.07;4.35;;;;;;;10.24;95.52;101188.72;5097554;28;20107;-82
2022/01/02 06:33:10;;;;;;;9.35;4.05;;;;;;;10.25;95.64;101187.78;5100375;28;20391;-82
2022/01/02 06:35:36;;;;;;;12.90;4.18;;;;;;;10.24;95.01;101178.22;5109664;28;20027;-82
2022/01/02 06:38:22;;;;;;;6.13;3.67;;;;;;;10.25;95.11;101158.84;5101305;28;20243;-82
2022/01/02 06:40:49;;;;;;;10.07;4.30;;;;;;;10.21;95.34;101158.22;5110387;28;20019;-82
2022/01/02 06:43:16;;;;;;;8.13;4.10;;;;;;;10.21;94.94;101147.72;5108773;28;20107;-82
2022/01/02 06:45:45;;;;;;;8.48;3.67;;;;;;;10.20;94.77;101132.00;5109616;28;20027;-82
2022/01/02 06:48:13;;;;;;;10.65;3.83;;;;;;;10.19;94.84;101120.63;5109577;28;20146;-82
2022/01/02 06:50:40;;;;;;;8.57;3.60;;;;;;;10.19;94.65;101115.38;5103765;28;20024;-83
2022/01/02 06:53:06;;;;;;;9.73;4.00;;;;;;;10.13;94.52;101112.34;5091745;28;20095;-82
2022/01/02 06:55:33;;;;;;;9.93;4.07;;;;;;;10.16;94.43;101117.38;5094111;28;20489;-82
2022/01/02 06:57:59;;;;;;;7.82;3.47;;;;;;;10.16;94.07;101112.13;5107644;28;20032;-82
2022/01/02 07:00:25;;;;;;;7.15;3.53;;;;;;;10.15;94.24;101095.50;5107250;28;20057;-82
2022/01/02 07:02:51;;;;;;;11.02;3.50;;;;;;;10.17;93.78;101108.53;5098340;28;20040;-82
2022/01/02 07:05:17;;;;;;;9.68;3.90;;;;;;;10.17;93.77;101092.78;5093445;28;20031;-82
2022/01/02 07:07:45;;;;;;;8.57;3.50;;;;;;;10.15;93.27;101099.91;5096899;27;20050;-82
2022/01/02 07:10:16;;;;;;;6.38;3.42;;;;;;;10.20;93.32;101105.72;5108722;28;20027;-82
2022/01/02 07:12:42;;;;;;;6.07;3.53;;;;;;;10.19;93.04;101106.66;5107322;28;20027;-82
2022/01/02 07:15:09;;;;;;;10.13;3.92;;;;;;;10.18;92.72;101104.97;5110693;28;20020;-81
2022/01/02 07:17:36;;;;;;;6.53;3.28;;;;;;;10.23;92.69;101118.69;5097500;28;20032;-82
2022/01/02 07:20:04;;;;;;;10.75;3.22;;;;;;;10.23;92.33;101123.94;5106635;28;20062;-81
2022/01/02 07:22:30;;;;;;;9.55;3.40;;;;;;;10.23;92.10;101124.78;5102428;28;20023;-81
2022/01/02 07:24:56;;;;;;;8.45;3.05;;;;;;;10.21;92.25;101116.16;5110109;28;20024;-81
2022/01/02 07:27:22;;;;;;;7.00;3.33;;;;;;;10.25;92.18;101093.13;5108189;28;20031;-81
2022/01/02 07:29:50;;;;;;;5.78;3.38;;;;;;;10.23;91.59;101093.22;5100060;28;20031;-81
2022/01/02 07:32:16;;;;;;;7.57;3.00;;;;;;;10.22;91.98;101085.44;5107500;28;20409;-81
2022/01/02 07:34:44;;;;;;;6.57;3.38;;;;;;;10.22;92.50;101081.03;5110157;28;20028;-81
2022/01/02 07:37:10;;;;;;;8.27;3.72;;;;;;;10.18;92.24;101078.69;5108586;28;20027;-81
2022/01/02 07:39:36;;;;;;;13.65;6.03;;;;;;;10.23;91.42;101097.63;5108852;28;20524;-81
2022/01/02 07:42:01;;;;;;;6.90;4.28;;;;;;;10.22;91.41;101090.69;5105954;28;20430;-81
2022/01/02 07:44:27;;;;;;;9.73;3.35;;;;;;;10.25;90.68;101079.97;5101808;28;20031;-81
2022/01/02 07:46:52;;;;;;;7.75;3.20;;;;;;;10.25;90.09;101087.84;5103308;28;20111;-81
2022/01/02 07:49:18;;;;;;;7.20;3.50;;;;;;;10.30;90.03;101104.16;5103745;28;20110;-82
2022/01/02 07:51:43;;;;;;;6.43;2.90;;;;;;;10.33;90.32;101098.69;5099333;28;20114;-81
2022/01/02 07:54:08;;;;;;;5.80;3.17;;;;;;;10.30;90.79;101104.16;5100344;28;20028;-82
2022/01/02 07:56:34;;;;;;;8.40;3.83;;;;;;;10.28;91.38;101108.69;5099351;28;20080;-82
2022/01/02 07:59:00;;;;;;;7.47;3.40;;;;;;;10.30;91.80;101119.94;5102486;28;20039;-82
2022/01/02 08:01:26;;;;;;;7.47;3.17;;;;;;;10.29;91.38;101134.03;5102020;28;20031;-80
2022/01/02 08:03:52;;;;;;;7.35;3.45;;;;;;;10.29;91.16;101126.16;5100629;28;20073;-81
2022/01/02 08:06:17;;;;;;;5.43;3.35;;;;;;;10.24;91.79;101113.31;5103540;28;20413;-81
2022/01/02 08:08:44;;;;;;;8.68;3.60;;;;;;;10.26;92.21;101113.19;5103044;28;20020;-81
2022/01/02 08:11:09;;;;;;;7.72;3.45;;;;;;;10.26;91.52;101114.03;5100691;28;20028;-81
2022/01/02 08:13:35;;;;;;;4.75;3.20;;;;;;;10.25;91.18;101117.63;5100904;28;20108;-81
2022/01/02 08:16:00;;;;;;;9.45;3.28;;;;;;;10.27;91.38;101125.41;5102605;28;20494;-81
2022/01/02 08:18:25;;;;;;;5.82;3.53;;;;;;;10.27;91.37;101131.50;5102280;28;20031;-81
2022/01/02 08:20:51;;;;;;;6.50;3.30;;;;;;;10.26;91.60;101139.50;5099611;28;20032;-80
2022/01/02 08:23:17;;;;;;;6.22;3.17;;;;;;;10.28;90.99;101137.59;5099518;28;20027;-81
2022/01/02 08:25:43;;;;;;;7.03;3.25;;;;;;;10.26;91.52;101127.19;5100948;28;20055;-80
2022/01/02 08:28:08;;;;;;;8.20;3.70;;;;;;;10.31;90.65;101111.09;5094550;28;20059;-81
2022/01/02 08:30:34;;;;;;;5.63;2.90;;;;;;;10.30;90.13;101093.63;5099966;28;20062;-81
2022/01/02 08:32:59;;;;;;;6.07;3.05;;;;;;;10.32;90.08;101128.56;5102446;28;20123;-80
2022/01/02 08:35:25;;;;;;;4.53;3.08;;;;;;;10.33;90.44;101136.34;5107261;28;20027;-80
2022/01/02 08:37:50;;;;;;;4.65;2.80;;;;;;;10.34;89.55;101110.88;5109492;27;20487;-80
2022/01/02 08:40:16;;;;;;;7.40;3.17;;;;;;;10.38;89.03;101125.50;5098738;28;20031;-81
2022/01/02 08:42:42;;;;;;;4.63;2.95;;;;;;;10.38;88.95;101116.78;5087911;28;20024;-81
2022/01/02 08:45:08;;;;;;;8.90;3.67;;;;;;;10.41;88.92;101138.47;5104783;28;20028;-80
2022/01/02 08:47:34;;;;;;;4.60;3.17;;;;;;;10.45;88.08;101129.44;5071908;28;20016;-80
2022/01/02 08:50:00;;;;;;;6.53;3.55;;;;;;;10.49;87.00;101136.16;5083925;28;20024;-81
2022/01/02 08:52:26;;;;;;;7.05;3.60;;;;;;;10.52;86.90;101135.94;5081233;28;20096;-81
2022/01/02 08:54:51;;;;;;;7.78;3.33;;;;;;;10.56;86.74;101137.41;5080969;28;20040;-81
2022/01/02 08:57:17;;;;;;;9.35;3.58;;;;;;;10.61;86.59;101140.56;5097294;28;20035;-81
2022/01/02 08:59:43;;;;;;;7.65;3.40;;;;;;;10.64;86.26;101140.34;5081203;28;20086;-83
2022/01/02 09:02:08;;;;;;;5.93;3.50;;;;;;;10.66;86.19;101130.56;5079493;28;20024;-83
2022/01/02 09:04:34;;;;;;;6.30;3.90;;;;;;;10.65;85.67;101130.66;5079291;28;20031;-83
2022/01/02 09:07:01;;;;;;;6.57;3.92;;;;;;;10.68;85.92;101126.03;5078880;28;20031;-83
2022/01/02 09:09:26;;;;;;;6.78;3.70;;;;;;;10.71;85.89;101116.22;5089504;28;20034;-83
2022/01/02 09:11:53;;;;;;;7.57;3.90;;;;;;;10.75;85.45;101104.53;5086402;28;20468;-83
2022/01/02 09:14:19;;;;;;;5.82;4.03;;;;;;;10.73;85.79;101112.53;5082550;28;20081;-83
2022/01/02 09:16:45;;;;;;;12.32;4.50;;;;;;;10.78;85.32;101115.69;5068706;28;20028;-83
2022/01/02 09:19:14;;;;;;;7.10;4.20;;;;;;;10.83;85.18;101124.13;5084496;28;20035;-83
2022/01/02 09:21:40;;;;;;;7.97;4.10;;;;;;;10.86;85.47;101117.81;5082741;28;20032;-83
2022/01/02 09:24:06;;;;;;;7.97;4.05;;;;;;;10.86;86.09;101110.75;5069744;28;20024;-83
2022/01/02 09:26:32;;;;;;;6.40;4.25;;;;;;;10.88;86.53;101115.91;5068765;28;20025;-83
2022/01/02 09:28:57;;;;;;;10.85;4.60;;;;;;;10.95;85.57;101114.50;5092461;28;20028;-80
2022/01/02 09:31:23;;;;;;;8.50;4.50;;;;;;;11.02;85.88;101128.06;5083868;28;20052;-81
2022/01/02 09:33:49;;;;;;;9.40;4.32;;;;;;;11.07;85.73;101131.22;5076637;28;20028;-81
2022/01/02 09:36:14;;;;;;;9.38;4.72;;;;;;;11.15;85.64;101126.22;5070852;28;20059;-83
2022/01/02 09:38:42;;;;;;;10.23;4.68;;;;;;;11.19;85.02;101112.72;5076028;28;20024;-83
2022/01/02 09:41:08;;;;;;;8.98;4.80;;;;;;;11.25;84.74;101125.47;5100458;28;20032;-81
2022/01/02 09:43:33;;;;;;;9.55;4.50;;;;;;;11.32;84.73;101128.50;5087201;28;20043;-81
2022/01/02 09:45:59;;;;;;;11.20;5.10;;;;;;;11.36;84.56;101134.41;5081953;28;20108;-81
2022/01/02 09:48:27;;;;;;;9.75;4.90;;;;;;;11.37;83.98;101129.00;5077379;28;20480;-82
2022/01/02 09:50:53;;;;;;;6.15;4.28;;;;;;;11.40;84.45;101144.59;5087799;28;20432;-82
2022/01/02 09:53:18;;;;;;;8.25;4.63;;;;;;;11.42;84.12;101152.38;5069901;28;20036;-82
2022/01/02 09:55:44;;;;;;;6.75;4.68;;;;;;;11.42;83.73;101147.97;5103753;28;20464;-82
2022/01/02 09:58:11;;;;;;;12.50;4.65;;;;;;;11.41;83.59;101137.53;5088639;28;20419;-82
2022/01/02 10:00:39;;;;;;;11.30;5.25;;;;;;;11.43;84.07;101138.25;5094728;28;20525;-81
2022/01/02 10:03:08;;;;;;;8.60;4.75;;;;;;;11.45;83.28;101141.63;5069287;28;20131;-82
2022/01/02 10:05:50;;;;;;;8.07;4.60;;;;;;;11.48;84.37;101144.88;5095452;28;20100;-81
2022/01/02 10:08:24;;;;;;;8.38;4.60;;;;;;;11.49;84.22;101149.19;5085498;28;20028;-84
2022/01/02 10:11:01;;;;;;;9.32;4.80;;;;;;;11.55;84.15;101150.53;5090023;28;20535;-84
2022/01/02 10:13:40;;;;;;;9.55;4.65;;;;;;;11.59;84.10;101162.53;5090065;28;20034;-81
2022/01/02 10:16:38;;;;;;;9.05;4.28;;;;;;;11.64;83.51;101168.34;5095776;28;20032;-81
2022/01/02 10:19:35;;;;;;;8.80;4.70;;;;;;;11.68;83.73;101148.69;5080287;28;20040;-80
2022/01/02 10:22:04;;;;;;;9.05;3.95;;;;;;;11.68;82.47;101148.69;5104217;28;20784;-84
2022/01/02 10:24:33;;;;;;;10.18;4.38;;;;;;;11.70;82.30;101145.94;5075100;28;20024;-84
2022/01/02 10:27:21;;;;;;;8.27;4.15;;;;;;;11.72;83.60;101144.03;5085934;28;20484;-83
2022/01/02 10:29:55;;;;;;;9.13;4.68;;;;;;;11.71;83.07;101134.44;5079597;28;20032;-83
2022/01/02 10:32:24;;;;;;;7.72;4.20;;;;;;;11.75;82.51;101144.66;5080957;28;20043;-83
2022/01/02 10:34:51;;;;;;;7.30;4.50;;;;;;;11.75;82.29;101134.09;5090455;28;20019;-81
2022/01/02 10:37:23;;;;;;;12.40;4.60;;;;;;;11.79;82.35;101118.94;5089732;28;20031;-81
2022/01/02 10:39:49;;;;;;;10.05;4.47;;;;;;;11.82;81.95;101118.69;5085211;28;20020;-82
2022/01/02 10:42:17;;;;;;;9.50;4.45;;;;;;;11.81;82.56;101120.50;5084808;28;20062;-82
2022/01/02 10:44:44;;;;;;;11.77;4.15;;;;;;;11.82;82.44;101135.34;5084483;28;20023;-82
2022/01/02 10:47:24;;;;;;;10.30;4.07;;;;;;;11.84;82.72;101132.59;5090957;28;20107;-84
2022/01/02 10:50:05;;;;;;;13.93;4.93;;;;;;;11.85;82.59;101137.75;5082865;28;20480;-84
2022/01/02 10:52:35;;;;;;;13.20;4.57;;;;;;;11.85;83.19;101129.84;5080010;28;20029;-81
2022/01/02 10:55:23;;;;;;;10.73;4.25;;;;;;;11.86;82.51;101131.53;5097427;28;20561;-81
2022/01/02 10:57:52;;;;;;;9.98;4.25;;;;;;;11.88;82.57;101128.78;5082774;28;20043;-81
2022/01/02 11:00:27;;;;;;;8.95;4.07;;;;;;;11.88;83.04;101134.91;5090619;28;20031;-81
2022/01/02 11:02:54;;;;;;;10.65;3.88;;;;;;;11.91;82.30;101141.72;5097671;28;20027;-81
2022/01/02 11:05:23;;;;;;;13.43;4.47;;;;;;;11.88;82.56;101134.91;5075751;28;20432;-82
2022/01/02 11:07:54;;;;;;;9.25;3.83;;;;;;;11.95;83.14;101129.16;5079707;28;20484;-81
2022/01/02 11:10:23;;;;;;;11.95;3.95;;;;;;;11.97;82.25;101127.25;5094005;28;20036;-81
2022/01/02 11:12:51;;;;;;;11.75;4.53;;;;;;;11.97;82.55;101120.16;5072638;28;20039;-81
2022/01/02 11:15:18;;;;;;;12.15;4.55;;;;;;;12.01;82.97;101123.41;5085967;28;20036;-81
2022/01/02 11:17:45;;;;;;;9.98;4.10;;;;;;;12.04;82.81;101117.94;5083735;28;20065;-81
2022/01/02 11:20:14;;;;;;;11.90;3.80;;;;;;;12.09;82.30;101121.91;5085779;28;20660;-81
2022/01/02 11:23:07;;;;;;;14.10;4.80;;;;;;;12.16;82.89;101122.28;5085160;28;20069;-81
2022/01/02 11:25:42;;;;;;;;;;;;;;;12.23;83.46;101126.13;5088280;28;20028;-82
2022/01/02 11:28:25;;;;;;;12.07;4.00;;;;;;;12.25;82.75;101126.84;5086700;28;19919;-81
2022/01/02 11:30:53;;;;;;;7.93;3.58;;;;;;;12.29;81.96;101132.72;5085662;28;20048;-81
2022/01/02 11:33:29;;;;;;;10.00;4.03;;;;;;;12.31;81.66;101129.00;5082186;28;20024;-81